createdAt,value
2018-04-15T00:00:16.644Z,11.0
2018-04-15T00:16:55.627Z,11.0
2018-04-15T00:33:34.859Z,10.7
2018-04-15T00:50:14.337Z,10.7
2018-04-15T01:06:53.141Z,10.7
2018-04-15T01:23:32.995Z,10.7
2018-04-15T01:40:12.517Z,11.0
2018-04-15T01:56:50.941Z,11.0
2018-04-15T02:13:30.508Z,11.0
2018-04-15T02:30:10.659Z,11.0
2018-04-15T02:46:49.711Z,11.0
2018-04-15T03:03:29.175Z,11.0
2018-04-15T03:20:08.286Z,11.0
2018-04-15T03:36:48.092Z,11.0
2018-04-15T03:53:27.437Z,10.7
2018-04-15T04:10:06.388Z,10.4
2018-04-15T04:26:44.874Z,10.4
2018-04-15T04:43:23.883Z,10.4
2018-04-15T05:00:02.876Z,10.1
2018-04-15T05:16:41.965Z,10.4
2018-04-15T05:33:20.368Z,10.1
2018-04-15T05:49:58.864Z,10.4
2018-04-15T06:06:37.855Z,10.4
2018-04-15T06:23:17.092Z,10.7
2018-04-15T06:39:56.430Z,11.0
2018-04-15T06:56:36.159Z,11.0
2018-04-15T07:13:15.287Z,11.4
2018-04-15T07:29:55.614Z,12.0
2018-04-15T07:46:35.363Z,12.3
2018-04-15T08:03:16.404Z,12.6
2018-04-15T08:13:17.331Z,13.3
2018-04-15T08:23:18.683Z,14.2
2018-04-15T08:33:20.113Z,14.9
2018-04-15T08:50:02.943Z,14.9
2018-04-15T09:06:45.978Z,15.2
2018-04-15T09:23:29.237Z,15.5
2018-04-15T09:40:12.670Z,15.5
2018-04-15T09:53:35.928Z,16.2
2018-04-15T10:10:19.109Z,16.2
2018-04-15T10:20:23.377Z,16.8
2018-04-15T10:27:03.460Z,17.4
2018-04-15T10:33:45.677Z,18.1
2018-04-15T10:50:31.475Z,18.4
2018-04-15T10:57:13.707Z,18.1
2018-04-15T11:10:38.310Z,18.7
2018-04-15T11:20:42.116Z,19.0
2018-04-15T11:37:28.558Z,19.0
2018-04-15T11:54:14.963Z,19.4
2018-04-15T12:11:01.903Z,19.7
2018-04-15T12:27:48.836Z,19.4
2018-04-15T12:44:35.771Z,19.0
2018-04-15T12:58:01.015Z,19.7
2018-04-15T13:14:48.064Z,20.0
2018-04-15T13:24:52.314Z,19.4
2018-04-15T13:41:38.762Z,19.7
2018-04-15T13:51:43.056Z,20.3
2018-04-15T13:58:26.133Z,19.7
2018-04-15T14:11:51.968Z,20.3
2018-04-15T14:28:39.547Z,20.3
2018-04-15T14:38:44.010Z,19.7
2018-04-15T14:55:31.131Z,19.7
2018-04-15T15:12:17.801Z,19.0
2018-04-15T15:29:04.186Z,19.0
2018-04-15T15:45:50.347Z,18.7
2018-04-15T16:02:36.299Z,18.4
2018-04-15T16:19:22.255Z,18.4
2018-04-15T16:36:08.428Z,18.7
2018-04-15T16:52:54.641Z,18.7
2018-04-15T17:09:41.004Z,18.4
2018-04-15T17:26:26.492Z,18.1
2018-04-15T17:43:11.915Z,17.8
2018-04-15T17:59:57.125Z,17.4
2018-04-15T18:16:41.871Z,16.8
2018-04-15T18:33:26.772Z,16.5
2018-04-15T18:50:10.355Z,16.2
2018-04-15T19:06:54.291Z,15.8
2018-04-15T19:23:37.879Z,15.8
2018-04-15T19:40:21.480Z,15.8
2018-04-15T19:57:05.035Z,15.8
2018-04-15T20:13:48.769Z,15.8
2018-04-15T20:30:32.230Z,15.5
2018-04-15T20:47:15.561Z,15.2
2018-04-15T21:03:58.444Z,14.6
2018-04-15T21:20:41.094Z,14.6
2018-04-15T21:37:24.721Z,14.6
2018-04-15T21:54:07.107Z,14.6
2018-04-15T22:10:49.966Z,14.6
2018-04-15T22:27:32.679Z,14.2
2018-04-15T22:44:14.907Z,14.2
2018-04-15T23:00:57.253Z,13.9
2018-04-15T23:17:39.299Z,13.6
2018-04-15T23:34:20.642Z,13.3
2018-04-15T23:51:02.397Z,13.3
